createdAt,value
2023-02-03T00:01:38.094Z,9.30
2023-02-03T00:04:06.147Z,9.30
2023-02-03T00:06:34.264Z,9.30
2023-02-03T00:09:02.213Z,9.30
2023-02-03T00:11:31.693Z,9.30
2023-02-03T00:13:59.837Z,9.30
2023-02-03T00:16:29.159Z,9.30
2023-02-03T00:18:57.050Z,9.30
2023-02-03T00:21:24.951Z,9.30
2023-02-03T00:23:54.491Z,9.30
2023-02-03T00:26:23.973Z,9.30
2023-02-03T00:28:51.847Z,9.40
2023-02-03T00:31:22.374Z,9.40
2023-02-03T00:33:55.883Z,9.40
2023-02-03T00:36:23.907Z,9.40
2023-02-03T00:38:52.142Z,9.40
2023-02-03T00:41:21.314Z,9.40
2023-02-03T00:43:49.784Z,9.40
2023-02-03T00:46:17.852Z,9.40
2023-02-03T00:48:45.780Z,9.40
2023-02-03T00:51:14.995Z,9.40
2023-02-03T00:53:42.838Z,9.40
2023-02-03T00:56:12.715Z,9.40
2023-02-03T00:58:40.735Z,9.40
2023-02-03T01:01:09.373Z,9.40
2023-02-03T01:03:37.521Z,9.40
2023-02-03T01:06:17.774Z,9.40
2023-02-03T01:08:45.907Z,9.40
2023-02-03T01:11:15.362Z,9.40
2023-02-03T01:13:43.221Z,9.40
2023-02-03T01:16:13.084Z,9.40
2023-02-03T01:18:41.870Z,9.40
2023-02-03T01:21:11.387Z,9.40
2023-02-03T01:23:40.713Z,9.40
2023-02-03T01:26:10.743Z,9.40
2023-02-03T01:28:39.344Z,9.40
2023-02-03T01:31:12.389Z,9.40
2023-02-03T01:33:41.101Z,9.40
2023-02-03T01:36:09.768Z,9.40
2023-02-03T01:38:38.598Z,9.40
2023-02-03T01:41:12.786Z,9.40
2023-02-03T01:43:43.511Z,9.40
2023-02-03T01:46:25.991Z,9.40
2023-02-03T01:48:57.065Z,9.40
2023-02-03T01:51:25.494Z,9.50
2023-02-03T01:53:54.994Z,9.50
2023-02-03T01:56:26.991Z,9.50
2023-02-03T01:58:54.958Z,9.50
2023-02-03T02:01:23.548Z,9.50
2023-02-03T02:03:55.935Z,9.50
2023-02-03T02:06:23.787Z,9.60
2023-02-03T02:08:52.931Z,9.50
2023-02-03T02:11:21.350Z,9.60
2023-02-03T02:13:53.896Z,9.60
2023-02-03T02:16:35.169Z,9.60
2023-02-03T02:19:23.243Z,9.60
2023-02-03T02:22:07.449Z,9.60
2023-02-03T02:25:00.627Z,9.60
2023-02-03T02:27:58.824Z,9.60
2023-02-03T02:30:44.051Z,9.60
2023-02-03T02:33:22.029Z,9.60
2023-02-03T02:35:58.066Z,9.60
2023-02-03T02:38:39.458Z,9.60
2023-02-03T02:41:11.738Z,9.60
2023-02-03T02:43:43.224Z,9.60
2023-02-03T02:46:14.657Z,9.60
2023-02-03T02:48:49.050Z,9.60
2023-02-03T02:51:18.094Z,9.60
2023-02-03T02:53:51.365Z,9.60
2023-02-03T02:56:20.770Z,9.60
2023-02-03T02:58:50.650Z,9.60
2023-02-03T03:01:19.101Z,9.60
2023-02-03T03:03:48.640Z,9.60
2023-02-03T03:06:22.719Z,9.60
2023-02-03T03:08:55.424Z,9.60
2023-02-03T03:11:27.193Z,9.60
2023-02-03T03:13:57.012Z,9.60
2023-02-03T03:16:26.979Z,9.60
2023-02-03T03:18:59.500Z,9.60
2023-02-03T03:21:31.810Z,9.60
2023-02-03T03:24:05.298Z,9.60
2023-02-03T03:26:37.416Z,9.60
2023-02-03T03:29:11.764Z,9.60
2023-02-03T03:31:41.265Z,9.60
2023-02-03T03:34:13.298Z,9.60
2023-02-03T03:36:45.740Z,9.60
2023-02-03T03:39:18.455Z,9.60
2023-02-03T03:41:57.330Z,9.60
2023-02-03T03:44:30.329Z,9.60
2023-02-03T03:47:08.576Z,9.60
2023-02-03T03:49:39.985Z,9.50
2023-02-03T03:52:11.139Z,9.60
2023-02-03T03:54:41.382Z,9.60
2023-02-03T03:57:15.379Z,9.60
2023-02-03T03:59:47.420Z,9.50
2023-02-03T04:02:17.027Z,9.60
2023-02-03T04:04:47.677Z,9.60
2023-02-03T04:07:15.982Z,9.60
2023-02-03T04:09:43.998Z,9.60
2023-02-03T04:12:23.064Z,9.60
2023-02-03T04:14:50.918Z,9.60
2023-02-03T04:17:20.092Z,9.60
2023-02-03T04:19:50.032Z,9.60
2023-02-03T04:22:17.896Z,9.60
2023-02-03T04:24:45.793Z,9.50
2023-02-03T04:27:13.688Z,9.50
2023-02-03T04:29:41.534Z,9.50
2023-02-03T04:32:09.491Z,9.50
2023-02-03T04:34:37.433Z,9.50
2023-02-03T04:37:06.597Z,9.50
2023-02-03T04:39:34.492Z,9.50
2023-02-03T04:42:02.390Z,9.50
2023-02-03T04:44:30.241Z,9.50
2023-02-03T04:46:58.101Z,9.50
2023-02-03T04:49:25.987Z,9.50
2023-02-03T04:51:53.878Z,9.50
2023-02-03T04:54:23.097Z,9.50
2023-02-03T04:56:50.962Z,9.50
2023-02-03T04:59:18.891Z,9.60
2023-02-03T05:01:46.728Z,9.50
2023-02-03T05:04:14.627Z,9.50
2023-02-03T05:06:42.557Z,9.50
2023-02-03T05:09:10.405Z,9.50
2023-02-03T05:11:39.602Z,9.50
2023-02-03T05:14:07.693Z,9.50
2023-02-03T05:16:35.570Z,9.50
2023-02-03T05:19:03.585Z,9.50
2023-02-03T05:21:31.452Z,9.50
2023-02-03T05:24:00.208Z,9.50
2023-02-03T05:26:28.080Z,9.50
2023-02-03T05:28:57.820Z,9.50
2023-02-03T05:31:25.940Z,9.50
2023-02-03T05:33:53.776Z,9.50
2023-02-03T05:36:21.637Z,9.50
2023-02-03T05:38:49.519Z,9.40
2023-02-03T05:41:34.760Z,9.50
2023-02-03T05:44:04.016Z,9.50
2023-02-03T05:46:31.914Z,9.40
2023-02-03T05:48:59.750Z,9.50
2023-02-03T05:51:28.284Z,9.40
2023-02-03T05:53:56.206Z,9.40
2023-02-03T05:56:24.107Z,9.40
2023-02-03T05:58:53.289Z,9.40
2023-02-03T06:01:22.687Z,9.40
2023-02-03T06:03:50.712Z,9.40
2023-02-03T06:06:19.000Z,9.40
2023-02-03T06:08:46.925Z,9.40
2023-02-03T06:11:14.803Z,9.40
2023-02-03T06:13:42.669Z,9.40
2023-02-03T06:16:10.633Z,9.40
2023-02-03T06:18:39.870Z,9.40
2023-02-03T06:21:07.794Z,9.40
2023-02-03T06:23:35.698Z,9.40
2023-02-03T06:26:03.547Z,9.40
2023-02-03T06:28:33.436Z,9.40
2023-02-03T06:31:01.441Z,9.40
2023-02-03T06:33:29.364Z,9.40
2023-02-03T06:35:58.625Z,9.40
2023-02-03T06:38:26.562Z,9.30
2023-02-03T06:40:54.409Z,9.30
2023-02-03T06:43:22.257Z,9.30
2023-02-03T06:45:50.229Z,9.30
2023-02-03T06:48:18.153Z,9.30
2023-02-03T06:50:48.608Z,9.30
2023-02-03T06:53:18.105Z,9.30
2023-02-03T06:55:47.765Z,9.30
2023-02-03T06:58:15.752Z,9.30
2023-02-03T07:00:43.660Z,9.40
2023-02-03T07:03:11.599Z,9.40
2023-02-03T07:05:40.698Z,9.40
2023-02-03T07:08:08.619Z,9.40
2023-02-03T07:10:37.924Z,9.40
2023-02-03T07:13:07.057Z,9.40
2023-02-03T07:15:35.448Z,9.40
2023-02-03T07:18:03.478Z,9.40
2023-02-03T07:20:32.873Z,9.40
2023-02-03T07:23:00.805Z,9.40
2023-02-03T07:25:28.884Z,9.40
2023-02-03T07:27:58.238Z,9.40
2023-02-03T07:30:26.521Z,9.30
2023-02-03T07:32:55.014Z,9.40
2023-02-03T07:35:23.016Z,9.30
2023-02-03T07:37:50.886Z,9.30
2023-02-03T07:40:19.375Z,9.40
2023-02-03T07:42:49.145Z,9.40
2023-02-03T07:45:19.674Z,9.40
2023-02-03T07:47:47.681Z,9.40
2023-02-03T07:50:15.634Z,9.50
2023-02-03T07:52:43.603Z,9.50
2023-02-03T07:55:11.680Z,9.50
2023-02-03T07:57:43.373Z,9.50
2023-02-03T08:00:13.921Z,9.50
2023-02-03T08:02:43.491Z,9.50
2023-02-03T08:05:12.595Z,9.50
2023-02-03T08:07:40.721Z,9.50
2023-02-03T08:10:10.743Z,9.50
2023-02-03T08:12:39.025Z,9.60
2023-02-03T08:15:08.597Z,9.50
2023-02-03T08:17:36.552Z,9.60
2023-02-03T08:20:07.092Z,9.60
2023-02-03T08:22:35.033Z,9.60
2023-02-03T08:25:03.844Z,9.60
2023-02-03T08:27:33.757Z,9.60
2023-02-03T08:30:01.741Z,9.70
2023-02-03T08:32:29.868Z,9.70
2023-02-03T08:34:57.760Z,9.70
2023-02-03T08:37:28.417Z,9.70
2023-02-03T08:39:56.531Z,9.70
2023-02-03T08:42:24.474Z,9.70
2023-02-03T08:44:52.439Z,9.70
2023-02-03T08:47:20.472Z,9.70
2023-02-03T08:49:48.486Z,9.70
2023-02-03T08:52:18.963Z,9.70
2023-02-03T08:54:49.057Z,9.80
2023-02-03T08:57:17.224Z,9.70
2023-02-03T08:59:45.921Z,9.80
2023-02-03T09:02:18.017Z,9.80
2023-02-03T09:04:47.403Z,9.80
2023-02-03T09:07:16.684Z,9.80
2023-02-03T09:09:44.990Z,9.80
2023-02-03T09:12:14.321Z,9.80
2023-02-03T09:14:42.329Z,9.80
2023-02-03T09:17:11.480Z,9.80
2023-02-03T09:19:39.648Z,9.90
2023-02-03T09:22:07.776Z,9.90
2023-02-03T09:24:35.823Z,9.90
2023-02-03T09:27:03.781Z,9.90
2023-02-03T09:29:33.137Z,9.90
2023-02-03T09:32:07.099Z,9.90
2023-02-03T09:34:35.165Z,9.90
2023-02-03T09:37:04.283Z,9.90
2023-02-03T09:39:32.529Z,9.90
2023-02-03T09:42:26.073Z,9.90
2023-02-03T09:45:07.593Z,9.90
2023-02-03T09:47:38.197Z,9.90
2023-02-03T09:50:08.433Z,9.90
2023-02-03T09:52:40.126Z,9.90
2023-02-03T09:55:18.165Z,9.90
2023-02-03T09:57:51.573Z,9.90
2023-02-03T10:00:24.416Z,9.90
2023-02-03T10:02:59.578Z,9.90
2023-02-03T10:05:42.012Z,10.00
2023-02-03T10:08:19.000Z,10.00
2023-02-03T10:11:09.420Z,10.00
2023-02-03T10:13:45.480Z,10.00
2023-02-03T10:16:30.045Z,10.00
2023-02-03T10:19:04.168Z,10.00
2023-02-03T10:21:38.021Z,10.00
2023-02-03T10:24:13.639Z,10.00
2023-02-03T10:26:42.659Z,10.00
2023-02-03T10:29:20.537Z,10.00
2023-02-03T10:31:50.054Z,10.00
2023-02-03T10:34:19.827Z,10.00
2023-02-03T10:36:56.718Z,10.10
2023-02-03T10:39:40.542Z,10.10
2023-02-03T10:42:09.983Z,10.10
2023-02-03T10:44:40.421Z,10.10
2023-02-03T10:47:25.139Z,10.10
2023-02-03T10:49:55.009Z,10.20
2023-02-03T10:52:29.472Z,10.20
2023-02-03T10:54:59.352Z,10.10
2023-02-03T10:57:30.041Z,10.20
2023-02-03T11:00:09.839Z,10.10
2023-02-03T11:02:39.179Z,10.10
2023-02-03T11:05:20.642Z,10.10
2023-02-03T11:07:48.991Z,10.10
2023-02-03T11:10:34.685Z,10.10
2023-02-03T11:13:21.042Z,10.10
2023-02-03T11:16:00.987Z,10.00
2023-02-03T11:18:45.421Z,10.00
2023-02-03T11:21:24.871Z,10.10
2023-02-03T11:24:04.617Z,10.00
2023-02-03T11:26:36.915Z,10.00
2023-02-03T11:29:08.185Z,10.00
2023-02-03T11:31:37.474Z,10.00
2023-02-03T11:34:15.383Z,10.00
2023-02-03T11:36:43.307Z,10.00
2023-02-03T11:39:35.481Z,10.00
2023-02-03T11:42:04.240Z,10.00
2023-02-03T11:44:33.565Z,9.90
2023-02-03T11:47:04.884Z,9.90
2023-02-03T11:50:20.883Z,9.80
2023-02-03T11:53:04.006Z,9.80
2023-02-03T11:55:41.932Z,9.70
2023-02-03T11:58:44.848Z,9.70
2023-02-03T12:01:21.388Z,9.70
2023-02-03T12:04:16.975Z,9.60
2023-02-03T12:06:57.292Z,9.60
2023-02-03T12:09:36.512Z,9.50
2023-02-03T12:12:21.716Z,9.50
2023-02-03T12:14:58.364Z,9.60
2023-02-03T12:17:49.727Z,9.60
2023-02-03T12:20:35.373Z,9.60
2023-02-03T12:23:16.768Z,9.60
2023-02-03T12:25:56.557Z,9.60
2023-02-03T12:28:40.960Z,9.70
2023-02-03T12:31:15.389Z,9.60
2023-02-03T12:33:48.283Z,9.70
2023-02-03T12:36:20.171Z,9.70
2023-02-03T12:38:53.464Z,9.70
2023-02-03T12:41:27.696Z,9.70
2023-02-03T12:44:01.753Z,9.80
2023-02-03T12:46:32.160Z,9.80
2023-02-03T12:49:06.709Z,9.80
2023-02-03T12:51:39.917Z,9.80
2023-02-03T12:54:16.182Z,9.80
2023-02-03T12:56:49.008Z,9.80
2023-02-03T12:59:23.024Z,9.80
2023-02-03T13:01:55.707Z,9.80
2023-02-03T13:04:30.231Z,9.80
2023-02-03T13:07:06.701Z,9.80
2023-02-03T13:09:40.734Z,9.80
2023-02-03T13:12:14.706Z,9.80
2023-02-03T13:14:46.097Z,9.70
2023-02-03T13:17:19.201Z,9.70
2023-02-03T13:19:52.494Z,9.70
2023-02-03T13:22:24.723Z,9.60
2023-02-03T13:24:57.817Z,9.60
2023-02-03T13:27:42.595Z,9.70
2023-02-03T13:30:26.190Z,9.70
2023-02-03T13:33:27.566Z,9.60
2023-02-03T13:36:09.681Z,9.60
2023-02-03T13:39:05.998Z,9.60
2023-02-03T13:41:42.980Z,9.60
2023-02-03T13:44:16.348Z,9.60
2023-02-03T13:46:47.462Z,9.60
2023-02-03T13:49:24.332Z,9.60
2023-02-03T13:51:52.408Z,9.60
2023-02-03T13:54:28.629Z,9.50
2023-02-03T13:57:02.172Z,9.50
2023-02-03T13:59:42.314Z,9.50
2023-02-03T14:02:42.958Z,9.50
2023-02-03T14:05:44.263Z,9.50
2023-02-03T14:08:52.911Z,9.50
2023-02-03T14:11:43.358Z,9.50
2023-02-03T14:14:45.099Z,9.50
2023-02-03T14:17:50.500Z,9.50
2023-02-03T14:20:57.933Z,9.50
2023-02-03T14:23:40.926Z,9.50
2023-02-03T14:26:19.421Z,9.50
2023-02-03T14:28:48.411Z,9.50
2023-02-03T14:31:21.112Z,9.50
2023-02-03T14:33:58.409Z,9.50
2023-02-03T14:36:36.690Z,9.40
2023-02-03T14:39:24.186Z,9.40
2023-02-03T14:42:01.630Z,9.40
2023-02-03T14:44:38.880Z,9.40
2023-02-03T14:47:15.583Z,9.40
2023-02-03T14:49:57.633Z,9.40
2023-02-03T14:52:53.313Z,9.40
2023-02-03T14:55:36.522Z,9.40
2023-02-03T14:58:07.043Z,9.40
2023-02-03T15:00:37.511Z,9.40
2023-02-03T15:03:27.927Z,9.30
2023-02-03T15:05:58.787Z,9.40
2023-02-03T15:08:48.638Z,9.30
2023-02-03T15:11:23.980Z,9.30
2023-02-03T15:13:52.192Z,9.30
2023-02-03T15:16:22.505Z,9.30
2023-02-03T15:18:58.517Z,9.30
2023-02-03T15:21:27.278Z,9.30
2023-02-03T15:23:55.670Z,9.40
2023-02-03T15:26:25.208Z,9.30
2023-02-03T15:28:58.052Z,9.30
2023-02-03T15:31:34.632Z,9.30
2023-02-03T15:34:08.056Z,9.30
2023-02-03T15:36:43.291Z,9.30
2023-02-03T15:39:21.455Z,9.30
2023-02-03T15:41:55.760Z,9.30
2023-02-03T15:44:31.877Z,9.30
2023-02-03T15:47:03.749Z,9.30
2023-02-03T15:49:39.042Z,9.20
2023-02-03T15:52:14.555Z,9.20
2023-02-03T15:54:46.049Z,9.10
2023-02-03T15:57:20.655Z,9.10
2023-02-03T15:59:54.764Z,9.10
2023-02-03T16:02:28.718Z,9.10
2023-02-03T16:04:58.117Z,9.10
2023-02-03T16:07:28.764Z,9.00
2023-02-03T16:09:58.131Z,9.00
2023-02-03T16:12:27.336Z,9.00
2023-02-03T16:14:57.356Z,9.00
2023-02-03T16:17:28.919Z,9.00
2023-02-03T16:20:24.499Z,9.00
2023-02-03T16:23:05.037Z,9.00
2023-02-03T16:25:34.846Z,9.00
2023-02-03T16:28:23.068Z,8.90
2023-02-03T16:31:13.713Z,8.90
2023-02-03T16:34:03.172Z,8.90
2023-02-03T16:36:49.901Z,8.90
2023-02-03T16:39:35.938Z,8.90
2023-02-03T16:42:32.596Z,8.90
2023-02-03T16:45:18.193Z,8.90
2023-02-03T16:48:04.321Z,8.90
2023-02-03T16:50:52.773Z,8.90
2023-02-03T16:53:24.408Z,8.80
2023-02-03T16:55:54.279Z,8.80
2023-02-03T16:58:22.278Z,8.80
2023-02-03T17:00:52.023Z,8.80
2023-02-03T17:03:21.748Z,8.80
2023-02-03T17:05:50.800Z,8.70
2023-02-03T17:08:21.980Z,8.70
2023-02-03T17:10:50.324Z,8.70
2023-02-03T17:13:19.822Z,8.70
2023-02-03T17:15:49.854Z,8.70
2023-02-03T17:18:18.210Z,8.70
2023-02-03T17:20:46.711Z,8.70
2023-02-03T17:23:15.981Z,8.60
2023-02-03T17:25:47.059Z,8.60
2023-02-03T17:28:15.607Z,8.60
2023-02-03T17:30:43.649Z,8.60
2023-02-03T17:33:12.948Z,8.60
2023-02-03T17:35:42.318Z,8.60
2023-02-03T17:38:10.564Z,8.60
2023-02-03T17:54:35.101Z,8.50
2023-02-03T17:57:03.124Z,8.50
2023-02-03T17:59:34.906Z,8.50
2023-02-03T18:02:02.939Z,8.50
2023-02-03T18:04:31.087Z,8.50
2023-02-03T18:06:59.102Z,8.50
2023-02-03T18:09:27.117Z,8.50
2023-02-03T18:11:55.130Z,8.50
2023-02-03T18:14:23.198Z,8.50
2023-02-03T18:16:52.552Z,8.50
2023-02-03T18:19:20.529Z,8.50
2023-02-03T18:21:48.509Z,8.50
2023-02-03T18:24:18.433Z,8.50
2023-02-03T18:26:49.705Z,8.50
2023-02-03T18:29:18.663Z,8.50
2023-02-03T18:31:46.671Z,8.50
2023-02-03T18:34:16.666Z,8.50
2023-02-03T18:36:44.644Z,8.50
2023-02-03T18:39:14.254Z,8.50
2023-02-03T18:41:42.216Z,8.50
2023-02-03T18:44:10.664Z,8.50
2023-02-03T18:46:38.638Z,8.50
2023-02-03T18:49:09.253Z,8.50
2023-02-03T18:51:38.623Z,8.50
2023-02-03T18:54:06.625Z,8.50
2023-02-03T18:56:35.891Z,8.50
2023-02-03T18:59:09.731Z,8.50
2023-02-03T19:01:38.963Z,8.50
2023-02-03T19:04:07.450Z,8.60
2023-02-03T19:06:36.181Z,8.60
2023-02-03T19:09:06.415Z,8.60
2023-02-03T19:11:35.029Z,8.60
2023-02-03T19:14:03.108Z,8.60
2023-02-03T19:16:31.256Z,8.60
2023-02-03T19:18:59.199Z,8.60
2023-02-03T19:21:27.091Z,8.60
2023-02-03T19:23:54.958Z,8.60
2023-02-03T19:26:24.254Z,8.60
2023-02-03T19:28:52.573Z,8.60
2023-02-03T19:31:20.595Z,8.60
2023-02-03T19:33:48.716Z,8.60
2023-02-03T19:36:16.666Z,8.60
2023-02-03T19:38:44.585Z,8.60
2023-02-03T19:41:12.659Z,8.60
2023-02-03T19:43:41.918Z,8.60
2023-02-03T19:46:09.939Z,8.60
2023-02-03T19:48:38.465Z,8.60
2023-02-03T19:51:07.204Z,8.60
2023-02-03T19:53:35.174Z,8.60
2023-02-03T19:56:03.173Z,8.60
2023-02-03T19:58:31.626Z,8.60
2023-02-03T20:01:00.930Z,8.60
2023-02-03T20:03:28.865Z,8.50
2023-02-03T20:05:56.750Z,8.60
2023-02-03T20:08:24.675Z,8.60
2023-02-03T20:10:53.016Z,8.60
2023-02-03T20:13:20.886Z,8.60
2023-02-03T20:15:49.009Z,8.50
2023-02-03T20:18:18.573Z,8.60
2023-02-03T20:20:51.447Z,8.60
2023-02-03T20:23:19.455Z,8.60
2023-02-03T20:25:49.367Z,8.60
2023-02-03T20:28:17.506Z,8.60
2023-02-03T20:30:45.422Z,8.60
2023-02-03T20:33:14.121Z,8.60
2023-02-03T20:35:43.346Z,8.60
2023-02-03T20:38:11.183Z,8.60
2023-02-03T20:40:39.061Z,8.50
2023-02-03T20:43:14.521Z,8.50
2023-02-03T20:45:42.432Z,8.50
2023-02-03T20:48:12.351Z,8.50
2023-02-03T20:50:46.460Z,8.50
2023-02-03T20:53:20.654Z,8.50
2023-02-03T20:55:49.522Z,8.50
2023-02-03T20:58:19.956Z,8.50
2023-02-03T21:00:49.516Z,8.50
2023-02-03T21:03:36.851Z,8.50
2023-02-03T21:06:12.967Z,8.50
2023-02-03T21:08:43.139Z,8.50
2023-02-03T21:11:12.641Z,8.50
2023-02-03T21:13:41.355Z,8.60
2023-02-03T21:16:17.364Z,8.50
2023-02-03T21:18:49.051Z,8.60
2023-02-03T21:21:20.055Z,8.50
2023-02-03T21:23:49.368Z,8.60
2023-02-03T21:26:20.141Z,8.50
2023-02-03T21:28:49.976Z,8.50
2023-02-03T21:31:26.657Z,8.50
2023-02-03T21:33:55.686Z,8.50
2023-02-03T21:36:25.645Z,8.50
2023-02-03T21:38:56.693Z,8.50
2023-02-03T21:41:26.022Z,8.50
2023-02-03T21:43:55.711Z,8.50
2023-02-03T21:46:26.702Z,8.50
2023-02-03T21:48:56.051Z,8.50
2023-02-03T21:51:26.548Z,8.50
2023-02-03T21:53:58.603Z,8.50
2023-02-03T21:56:28.817Z,8.50
2023-02-03T21:58:58.985Z,8.50
2023-02-03T22:01:28.215Z,8.50
2023-02-03T22:03:58.915Z,8.50
2023-02-03T22:06:29.484Z,8.50
2023-02-03T22:08:59.769Z,8.50
2023-02-03T22:11:29.619Z,8.50
2023-02-03T22:13:57.997Z,8.50
2023-02-03T22:16:26.282Z,8.50
2023-02-03T22:18:54.238Z,8.50
2023-02-03T22:21:22.227Z,8.50
2023-02-03T22:23:50.231Z,8.50
2023-02-03T22:26:20.382Z,8.50
2023-02-03T22:28:48.332Z,8.50
2023-02-03T22:31:16.378Z,8.50
2023-02-03T22:33:44.960Z,8.50
2023-02-03T22:36:14.435Z,8.50
2023-02-03T22:38:43.158Z,8.50
2023-02-03T22:41:12.992Z,8.50
2023-02-03T22:43:42.294Z,8.50
2023-02-03T22:46:10.487Z,8.50
2023-02-03T22:48:38.376Z,8.50
2023-02-03T22:51:06.466Z,8.50
2023-02-03T22:53:34.799Z,8.50
2023-02-03T22:56:02.913Z,8.50
2023-02-03T22:58:30.975Z,8.50
2023-02-03T23:01:00.234Z,8.50
2023-02-03T23:03:31.928Z,8.50
2023-02-03T23:06:00.210Z,8.50
2023-02-03T23:08:28.152Z,8.50
2023-02-03T23:10:56.804Z,8.50
2023-02-03T23:13:25.058Z,8.50
2023-02-03T23:15:53.049Z,8.50
2023-02-03T23:18:22.325Z,8.60
2023-02-03T23:20:50.310Z,8.50
2023-02-03T23:23:18.230Z,8.50
2023-02-03T23:25:46.222Z,8.50
2023-02-03T23:28:14.186Z,8.50
2023-02-03T23:30:42.116Z,8.50
2023-02-03T23:33:10.091Z,8.50
2023-02-03T23:35:47.547Z,8.50
2023-02-03T23:38:17.135Z,8.50
2023-02-03T23:40:45.782Z,8.50
2023-02-03T23:43:13.655Z,8.40
2023-02-03T23:45:41.976Z,8.40
2023-02-03T23:48:09.867Z,8.40
2023-02-03T23:50:39.511Z,8.50
2023-02-03T23:53:07.356Z,8.50
2023-02-03T23:55:36.267Z,8.40
2023-02-03T23:58:04.989Z,8.40
